Latest Weather Observations for Geraldton Airport

IDW60801

Issued at 8:32 pm WST Sunday 19 April 2015 (issued every 30 minutes, with the page automatically refreshed every 10 minutes)

About weather observations | Map of weather stations | Latest weather observations for WA | Other Formats
Station Details ID: 008315 Name: GERALDTON AIRPORT Lat: -28.80 Lon: 114.70 Height: 29.7 m
Data from the previous 72 hours. | See also: Recent months at Geraldton Airport
Date/Time
WST
Temp
°C
App
Temp
°C
Dew
Point
Rel
Hum
%
Delta-T
°C
Wind Press
QNH
hPa
Press
MSL
hPa
Rain
since 9 am
mm
Dir
 
Spd
km/h
Gust
km/h
Spd
kts
Gust
kts
19/08:30pm 20.0 14.8 3.6 34 7.8 ESE 20 20 11 11 1021.7 - 0.0
19/08:00pm 20.3 15.7 3.8 33 7.9 ESE 17 20 9 11 1021.5 - 0.0
19/07:30pm 20.6 16.0 3.9 33 8.0 E 17 19 9 10 1021.1 - 0.0
19/07:00pm 20.5 16.4 4.3 34 7.8 ESE 15 17 8 9 1020.8 - 0.0
19/06:30pm 22.3 17.8 4.0 30 8.9 E 17 19 9 10 1020.3 - 0.0
19/06:00pm 25.2 20.4 2.4 22 11.0 E 17 20 9 11 1019.8 1019.8 0.0
19/05:30pm 28.1 21.4 -1.1 15 13.5 ENE 24 32 13 17 1019.2 - 0.0
19/05:00pm 29.1 21.9 -1.8 13 14.2 ENE 26 33 14 18 1019.0 - 0.0
19/04:30pm 29.6 22.5 -1.3 13 14.4 E 26 37 14 20 1018.9 - 0.0
19/04:00pm 29.7 22.4 -0.3 14 14.2 E 28 33 15 18 1018.8 - 0.0
19/03:30pm 30.1 22.7 1.7 16 14.0 ENE 30 37 16 20 1018.8 - 0.0
19/03:00pm 30.1 23.2 2.4 17 13.8 ENE 28 41 15 22 1018.9 1018.9 0.0
19/02:30pm 29.6 22.2 1.6 16 13.7 ENE 30 35 16 19 1019.0 - 0.0
19/02:00pm 29.9 22.5 1.9 16 13.8 NE 30 41 16 22 1019.1 - 0.0
19/01:30pm 29.4 21.8 3.1 18 13.2 ENE 32 39 17 21 1019.4 - 0.0
19/01:00pm 29.3 21.7 2.7 18 13.2 ENE 32 41 17 22 1020.0 - 0.0
19/12:30pm 27.9 20.5 2.1 19 12.6 ENE 30 43 16 23 1020.6 - 0.0
19/12:00pm 28.0 20.9 3.4 20 12.3 ENE 30 46 16 25 1021.0 1021.0 0.0
19/11:30am 27.4 19.1 2.1 19 12.3 ENE 35 46 19 25 1021.3 - 0.0
19/11:00am 26.5 17.2 3.2 22 11.5 ENE 41 52 22 28 1021.8 - 0.0
19/10:30am 25.6 15.4 3.2 23 11.0 ENE 46 59 25 32 1021.8 - 0.0
19/10:00am 24.9 15.2 4.0 26 10.4 ENE 44 56 24 30 1022.0 - 0.0
19/09:39am 23.8 15.0 3.7 27 9.8 ENE 39 57 21 31 1022.0 - 0.0
19/09:30am 23.7 14.3 4.5 28 9.5 ENE 43 56 23 30 1022.2 - 0.0
19/09:00am 22.9 14.7 4.7 30 9.0 ENE 37 54 20 29 1022.3 1022.3 0.0
19/08:00am 20.4 15.0 4.5 35 7.7 E 22 32 12 17 1022.0 - 0.0
19/07:30am 17.8 15.0 5.1 43 6.1 SSE 9 13 5 7 1021.9 - 0.0
19/07:00am 17.5 14.1 3.8 40 6.4 SSE 11 17 6 9 1021.6 - 0.0
19/05:30am 15.4 12.1 4.7 49 5.0 SE 11 15 6 8 1020.8 - 0.0
19/05:00am 13.7 9.9 5.6 58 3.8 SE 15 19 8 10 1020.6 - 0.0
19/04:30am 13.0 10.0 6.1 63 3.3 ESE 11 11 6 6 1020.3 - 0.0
19/04:00am 14.5 11.1 5.9 56 4.1 E 13 15 7 8 1020.2 - 0.0
19/03:30am 14.8 11.1 6.1 56 4.2 E 15 19 8 10 1020.3 - 0.0
19/03:00am 15.5 12.9 6.1 53 4.5 E 9 11 5 6 1020.2 1020.2 0.0
19/02:30am 14.1 10.2 7.0 62 3.5 ESE 17 19 9 10 1020.3 - 0.0
19/02:00am 14.6 11.5 7.1 60 3.7 ESE 13 17 7 9 1020.3 - 0.0
19/01:30am 13.6 13.1 7.7 67 2.9 CALM 0 0 0 0 1020.2 - 0.0
19/01:00am 15.9 13.8 6.8 54 4.5 E 7 11 4 6 1020.2 - 0.0
19/12:30am 15.9 13.2 7.2 56 4.3 NNE 11 13 6 7 1020.2 - 0.0
19/12:00am 15.1 12.2 8.2 63 3.5 ENE 13 15 7 8 1020.1 1020.1 0.0
 
Date/Time
WST
Temp
°C
App
Temp
°C
Dew
Point
Rel
Hum
%
Delta-T
°C
Wind Press
QNH
hPa
Press
MSL
hPa
Rain
since 9 am
mm
Dir
 
Spd
km/h
Gust
km/h
Spd
kts
Gust
kts
18/11:30pm 15.5 12.6 8.2 62 3.7 E 13 15 7 8 1020.1 - 0.0
18/11:00pm 16.4 13.8 7.9 57 4.3 ENE 11 13 6 7 1020.3 - 0.0
18/10:30pm 17.2 15.0 8.0 54 4.7 E 9 11 5 6 1020.3 - 0.0
18/10:00pm 17.4 16.2 9.6 60 4.1 E 6 7 3 4 1020.4 - 0.0
18/09:30pm 18.2 16.4 8.0 51 5.2 ENE 7 9 4 5 1020.1 - 0.0
18/09:00pm 18.4 15.9 8.1 51 5.3 E 11 13 6 7 1019.8 1019.8 0.0
18/08:30pm 18.9 15.6 8.0 49 5.6 E 15 17 8 9 1019.7 - 0.0
18/08:00pm 18.4 15.7 8.8 53 5.0 E 13 13 7 7 1019.6 - 0.0
18/07:30pm 19.0 16.1 8.2 49 5.6 E 13 15 7 8 1019.4 - 0.0
18/07:00pm 20.8 17.6 6.9 40 7.1 E 13 13 7 7 1019.1 - 0.0
18/06:30pm 22.9 18.9 6.8 35 8.3 E 17 17 9 9 1018.6 - 0.0
18/06:00pm 25.5 21.4 6.4 29 9.9 ENE 17 20 9 11 1018.2 1018.2 0.0
18/05:30pm 27.6 21.9 4.9 23 11.6 ENE 24 30 13 16 1017.6 - 0.0
18/05:00pm 28.5 22.1 5.0 22 12.1 E 28 33 15 18 1017.3 - 0.0
18/04:30pm 29.2 22.7 4.8 21 12.6 ENE 28 37 15 20 1017.2 - 0.0
18/04:00pm 29.4 23.4 5.5 22 12.5 E 26 33 14 18 1017.3 - 0.0
18/03:30pm 29.5 24.0 5.8 22 12.5 E 24 35 13 19 1017.2 - 0.0
18/03:00pm 29.8 24.9 7.1 24 12.2 E 22 33 12 18 1017.3 1017.2 0.0
18/02:30pm 29.5 24.2 6.9 24 12.1 ENE 24 33 13 18 1017.5 - 0.0
18/02:00pm 29.6 23.9 6.9 24 12.2 E 26 33 14 18 1017.6 - 0.0
18/01:30pm 29.1 24.4 7.7 26 11.6 E 22 35 12 19 1017.9 - 0.0
18/01:00pm 28.7 24.2 8.4 28 11.1 NE 22 32 12 17 1018.1 - 0.0
18/12:30pm 28.7 24.3 8.8 28 11.0 ENE 22 35 12 19 1018.6 - 0.0
18/12:00pm 27.9 22.3 8.7 30 10.5 ENE 28 41 15 22 1019.2 1019.2 0.0
18/11:34am 27.6 22.3 9.8 32 9.9 ENE 28 46 15 25 1019.5 - 0.0
18/11:30am 27.5 21.7 9.5 32 10.0 ENE 30 39 16 21 1019.6 - 0.0
18/11:00am 27.3 22.4 9.8 33 9.7 E 26 32 14 17 1019.7 - 0.0
18/10:30am 26.3 20.6 9.9 35 9.1 NE 30 35 16 19 1020.1 - 0.0
18/10:00am 25.7 19.6 9.8 36 8.8 E 32 39 17 21 1020.2 - 0.0
18/09:30am 24.2 18.7 9.0 38 8.2 E 28 35 15 19 1020.4 - 0.0
18/09:00am 22.6 16.5 9.7 44 7.0 E 32 39 17 21 1020.2 1020.2 0.0
18/08:30am 20.6 15.2 9.6 49 5.9 E 28 35 15 19 1019.9 - 0.0
18/08:00am 19.2 16.8 10.1 55 4.9 ENE 13 20 7 11 1019.9 - 0.0
18/07:30am 17.7 16.2 10.4 62 3.9 NNE 9 15 5 8 1019.7 - 0.0
18/07:00am 16.5 14.0 9.8 64 3.5 E 13 19 7 10 1019.4 - 0.0
18/06:30am 16.4 13.5 9.7 64 3.5 ESE 15 20 8 11 1019.1 - 0.0
18/06:00am 16.1 15.0 9.8 66 3.3 E 6 7 3 4 1019.0 1019.0 0.0
18/05:30am 15.7 12.9 10.0 69 3.0 E 15 19 8 10 1018.9 - 0.0
18/05:00am 16.0 14.2 9.4 65 3.4 ESE 9 11 5 6 1018.8 - 0.0
18/04:30am 16.1 14.3 9.3 64 3.5 SE 9 13 5 7 1018.7 - 0.0
18/04:00am 15.0 13.2 9.6 70 2.8 S 9 11 5 6 1018.4 - 0.0
18/03:30am 15.4 13.4 10.0 70 2.8 SE 11 13 6 7 1018.5 - 0.0
18/03:00am 15.9 12.7 9.8 67 3.2 SE 17 19 9 10 1018.6 1018.6 0.0
18/02:30am 16.6 13.3 9.7 63 3.6 ESE 17 20 9 11 1018.7 - 0.0
18/02:00am 15.8 13.1 10.5 71 2.8 SE 15 19 8 10 1019.0 - 0.0
18/01:30am 15.7 13.1 10.6 71 2.7 SE 15 20 8 11 1019.2 - 0.0
18/01:00am 14.7 13.2 11.8 83 1.6 SSE 11 13 6 7 1019.3 - 0.0
18/12:30am 15.4 13.1 11.7 78 2.0 SE 15 17 8 9 1019.4 - 0.0
18/12:00am 15.2 13.4 13.2 88 1.1 SSE 15 19 8 10 1019.4 1019.4 0.0
 
Date/Time
WST
Temp
°C
App
Temp
°C
Dew
Point
Rel
Hum
%
Delta-T
°C
Wind Press
QNH
hPa
Press
MSL
hPa
Rain
since 9 am
mm
Dir
 
Spd
km/h
Gust
km/h
Spd
kts
Gust
kts
17/11:30pm 16.0 14.8 13.9 87 1.2 SE 13 15 7 8 1019.5 - 0.0
17/11:00pm 16.3 14.9 14.6 90 1.0 SSE 15 17 8 9 1019.6 - 0.0
17/10:30pm 17.0 15.4 15.1 88 1.1 SE 17 19 9 10 1019.7 - 0.0
17/10:00pm 17.2 16.5 15.4 89 1.1 SSE 13 17 7 9 1019.7 - 0.0
17/09:30pm 17.6 17.7 15.6 88 1.2 SE 9 11 5 6 1019.6 - 0.0
17/09:00pm 18.9 17.8 16.4 85 1.5 SSE 17 19 9 10 1019.5 1019.5 0.0
17/08:30pm 20.0 18.5 16.7 81 2.0 SSE 20 24 11 13 1019.2 - 0.0
17/08:00pm 20.7 18.8 16.6 77 2.5 SSE 22 30 12 16 1019.0 - 0.0
17/07:30pm 21.1 18.3 16.3 74 2.9 SSE 26 33 14 18 1018.8 - 0.0
17/07:00pm 21.5 17.7 15.7 69 3.5 S 30 37 16 20 1018.6 - 0.0
17/06:30pm 21.6 18.1 15.6 68 3.6 S 28 37 15 20 1018.4 - 0.0
17/06:00pm 21.8 18.7 15.7 68 3.6 S 26 39 14 21 1018.4 1018.4 0.0
17/05:30pm 22.4 18.8 15.2 63 4.3 S 28 39 15 21 1018.0 - 0.0
17/05:00pm 22.8 18.8 15.1 62 4.6 S 30 39 16 21 1017.7 - 0.0
17/04:30pm 23.4 19.0 15.2 60 4.9 S 32 39 17 21 1017.6 - 0.0
17/04:00pm 24.7 20.9 14.8 54 5.9 S 28 35 15 19 1017.6 - 0.0
17/03:30pm 28.1 23.2 7.1 26 11.2 ESE 22 28 12 15 1017.7 - 0.0
17/03:00pm 27.9 22.6 6.8 26 11.2 E 24 26 13 14 1017.7 1017.6 0.0
17/02:30pm 27.7 22.9 7.3 27 10.9 E 22 28 12 15 1018.0 - 0.0
17/02:00pm 27.4 23.1 7.9 29 10.5 E 20 30 11 16 1018.2 - 0.0
17/01:30pm 26.7 22.8 8.6 32 9.8 E 19 35 10 19 1018.4 - 0.0
17/01:00pm 26.8 21.5 8.4 31 10.0 ESE 26 35 14 19 1018.8 - 0.0
17/12:30pm 25.9 20.7 9.0 34 9.2 ESE 26 33 14 18 1019.2 - 0.0
17/12:00pm 25.8 20.9 9.9 36 8.8 E 26 33 14 18 1019.8 1019.8 0.0
17/11:30am 24.9 20.5 10.5 40 8.0 ESE 24 30 13 16 1020.4 - 0.0
17/11:00am 24.2 19.5 10.5 42 7.6 E 26 35 14 19 1021.2 - 0.0
17/10:30am 23.6 18.4 10.4 43 7.3 E 28 39 15 21 1021.7 - 0.0
17/10:00am 22.7 16.9 10.7 46 6.6 ENE 32 41 17 22 1022.2 - 0.0
17/09:30am 22.1 17.4 10.8 48 6.2 E 26 39 14 21 1022.4 - 0.0
17/09:00am 20.2 18.2 11.5 57 4.8 ESE 13 19 7 10 1022.8 1022.8 0.0
17/08:30am 18.4 15.6 11.5 64 3.8 SE 17 20 9 11 1022.9 - 0.0
17/08:00am 17.3 14.9 11.4 68 3.2 ESE 15 19 8 10 1023.0 - 0.0
17/07:30am 13.1 12.7 11.0 87 1.1 SW 4 9 2 5 1022.8 - 0.0
17/07:00am 11.2 10.8 9.6 90 0.8 SE 2 7 1 4 1022.7 - 0.0
17/06:30am 11.7 10.0 10.0 89 0.9 SSE 9 13 5 7 1022.3 - 0.0
17/06:00am 11.8 9.4 9.9 88 1.0 SSE 13 17 7 9 1022.5 1022.5 0.0
17/05:30am 12.6 9.4 9.9 83 1.4 SSE 17 20 9 11 1022.2 - 0.0
17/05:00am 13.5 9.8 10.3 81 1.7 SSE 20 22 11 12 1022.2 - 0.0
17/04:30am 13.9 10.9 10.7 81 1.7 SE 17 19 9 10 1022.2 - 0.0
17/04:00am 13.6 10.9 10.5 81 1.6 SE 15 17 8 9 1022.0 - 0.0
17/03:30am 13.8 10.8 10.6 81 1.7 SE 17 17 9 9 1022.2 - 0.0
17/03:00am 14.1 12.3 10.7 80 1.8 SSE 11 13 6 7 1022.5 1022.5 0.0
17/02:30am 14.7 12.5 10.7 77 2.1 SSE 13 17 7 9 1022.6 - 0.0
17/02:00am 16.2 13.5 10.5 69 3.0 SE 15 20 8 11 1022.6 - 0.0
17/01:30am 16.0 13.7 10.3 69 3.0 ESE 13 17 7 9 1022.7 - 0.0
17/01:00am 15.4 13.8 10.1 70 2.8 ESE 9 13 5 7 1022.8 - 0.0
17/12:30am 15.9 13.3 9.5 66 3.3 ESE 13 17 7 9 1023.0 - 0.0
17/12:00am 16.3 12.3 9.2 63 3.7 ESE 20 24 11 13 1023.0 1023.0 0.0
 
Date/Time
WST
Temp
°C
App
Temp
°C
Dew
Point
Rel
Hum
%
Delta-T
°C
Wind Press
QNH
hPa
Press
MSL
hPa
Rain
since 9 am
mm
Dir
 
Spd
km/h
Gust
km/h
Spd
kts
Gust
kts
16/11:30pm 15.2 12.3 9.8 70 2.8 ESE 15 20 8 11 1023.2 - 0.0
16/11:00pm 14.6 11.8 10.0 74 2.4 ESE 15 17 8 9 1023.6 - 0.0
16/10:30pm 14.9 12.6 10.3 74 2.4 SE 13 15 7 8 1023.8 - 0.0
16/10:00pm 15.9 13.1 10.1 68 3.0 SE 15 17 8 9 1023.9 - 0.0
16/09:30pm 16.2 15.0 10.3 68 3.1 SSE 7 13 4 7 1024.2 - 0.0
16/09:00pm 16.2 14.4 10.7 70 2.9 SE 11 13 6 7 1024.1 1024.1 0.0

Other Formats:

Comma delimited format used in spreadsheet applications
http://www.bom.gov.au/fwo/IDW60801/IDW60801.94403.axf

JavaScript Object Notation format (JSON) in row-major order
http://www.bom.gov.au/fwo/IDW60801/IDW60801.94403.json